Main page
METAR-TAF:

METAR-TAF

Airports :

Belgrade Nikola Tesla Airport

Belgrade, Serbia

latitude: 44-49N, longitude: 020-17E, elevation: 96 m

Current weather observation

The report was made 35 minutes ago, at 22:00 UTC
Wind 8 kt from the Southeast
Temperature 21°C
Humidity 49%
Pressure 1015 hPa
Visibility 10 km or more
no clouds below 1500 m and no cumulonimbus

METAR: LYBE 212200Z 14008KT CAVOK 21/10 Q1015 NOSIG

Time: 00:35 (22:35 UTC)

Forecast

The report was made 5 hours and 35 minutes ago, at 17:00 UTC
Forecast valid from 21 at 18 UTC to 22 at 18 UTC
Wind 8 kt from the South/Southeast
Visibility 10 km or more
no clouds below 1500 m and no cumulonimbus
Becoming
from 22 at 07 UTC to 22 at 09 UTC
Wind 12 kt from the North/Northwest
Temporary
from 22 at 10 UTC to 22 at 15 UTC
Wind 15 kt from the North with gusts up to 25 kt

TAF: LYBE 211700Z 2118/2218 15008KT CAVOK TX26/2210Z TN15/2204Z BECMG 2207/2209 34012KT TEMPO 2210/2215 35015G25KT

Weather observations and forecasts of more than 4000 airports (METAR and TAF reports).

The available stations are represented by yellow and red dots on the map.

Hover mouse over dot to see the name of the station.

Then click to see weather observations and forecasts.

To change the map : click on the green buttons with a black cross to zoom in, on the green button with a dash to zoom out, or on the green arrows for adjacent maps.


METAR-TAF: